sensor_id;sensor_type;location;lat;lon;timestamp;pressure;altitude;pressure_sealevel;temperature;humidity
45813;BME280;31519;45.408;10.962;2024-01-30T00:00:20;102807.63;;;1.81;100.00
45813;BME280;31519;45.408;10.962;2024-01-30T00:03:09;102803.19;;;1.60;99.41
45813;BME280;31519;45.408;10.962;2024-01-30T00:05:37;102805.94;;;1.52;100.00
45813;BME280;31519;45.408;10.962;2024-01-30T00:08:06;102803.50;;;1.51;100.00
45813;BME280;31519;45.408;10.962;2024-01-30T00:10:35;102809.06;;;1.41;100.00
45813;BME280;31519;45.408;10.962;2024-01-30T00:13:04;102799.84;;;1.09;100.00
45813;BME280;31519;45.408;10.962;2024-01-30T00:15:32;102806.03;;;0.72;100.00
45813;BME280;31519;45.408;10.962;2024-01-30T00:18:01;102796.72;;;0.55;100.00
45813;BME280;31519;45.408;10.962;2024-01-30T00:20:29;102803.69;;;0.63;100.00
45813;BME280;31519;45.408;10.962;2024-01-30T00:22:57;102797.63;;;0.62;100.00
45813;BME280;31519;45.408;10.962;2024-01-30T00:25:26;102799.97;;;0.57;100.00
45813;BME280;31519;45.408;10.962;2024-01-30T00:27:54;102794.56;;;0.59;100.00
45813;BME280;31519;45.408;10.962;2024-01-30T00:30:23;102795.09;;;0.54;100.00
45813;BME280;31519;45.408;10.962;2024-01-30T00:32:51;102800.94;;;0.41;100.00
45813;BME280;31519;45.408;10.962;2024-01-30T00:35:20;102796.00;;;0.32;100.00
45813;BME280;31519;45.408;10.962;2024-01-30T00:37:50;102812.03;;;-0.01;100.00
45813;BME280;31519;45.408;10.962;2024-01-30T00:40:19;102807.19;;;0.26;100.00
45813;BME280;31519;45.408;10.962;2024-01-30T00:42:48;102807.56;;;0.37;100.00
45813;BME280;31519;45.408;10.962;2024-01-30T00:45:17;102813.09;;;0.72;100.00
45813;BME280;31519;45.408;10.962;2024-01-30T00:47:45;102805.72;;;0.97;100.00
45813;BME280;31519;45.408;10.962;2024-01-30T00:50:14;102807.91;;;0.78;100.00
45813;BME280;31519;45.408;10.962;2024-01-30T00:52:42;102817.69;;;0.70;100.00
45813;BME280;31519;45.408;10.962;2024-01-30T00:55:13;102809.03;;;0.55;100.00
45813;BME280;31519;45.408;10.962;2024-01-30T00:57:42;102817.44;;;0.50;100.00
45813;BME280;31519;45.408;10.962;2024-01-30T01:00:13;102815.72;;;0.86;100.00
45813;BME280;31519;45.408;10.962;2024-01-30T01:02:45;102815.06;;;0.70;100.00
45813;BME280;31519;45.408;10.962;2024-01-30T01:05:13;102819.75;;;0.30;100.00
45813;BME280;31519;45.408;10.962;2024-01-30T01:07:42;102824.38;;;0.58;100.00
45813;BME280;31519;45.408;10.962;2024-01-30T01:10:11;102818.03;;;0.37;100.00
45813;BME280;31519;45.408;10.962;2024-01-30T01:12:41;102826.53;;;0.25;100.00
45813;BME280;31519;45.408;10.962;2024-01-30T01:15:10;102825.56;;;0.40;100.00
45813;BME280;31519;45.408;10.962;2024-01-30T01:17:39;102821.66;;;0.66;100.00
45813;BME280;31519;45.408;10.962;2024-01-30T01:20:08;102819.94;;;0.43;100.00
45813;BME280;31519;45.408;10.962;2024-01-30T01:22:38;102832.69;;;0.61;100.00
45813;BME280;31519;45.408;10.962;2024-01-30T01:25:07;102830.63;;;0.57;100.00
45813;BME280;31519;45.408;10.962;2024-01-30T01:27:36;102827.84;;;0.73;100.00
45813;BME280;31519;45.408;10.962;2024-01-30T01:30:10;102829.44;;;0.88;100.00
45813;BME280;31519;45.408;10.962;2024-01-30T01:32:39;102832.69;;;0.61;100.00
45813;BME280;31519;45.408;10.962;2024-01-30T01:35:13;102826.91;;;0.51;100.00
45813;BME280;31519;45.408;10.962;2024-01-30T01:37:41;102828.44;;;0.60;100.00
45813;BME280;31519;45.408;10.962;2024-01-30T01:40:10;102833.88;;;0.73;100.00
45813;BME280;31519;45.408;10.962;2024-01-30T01:42:38;102828.53;;;0.52;100.00
45813;BME280;31519;45.408;10.962;2024-01-30T01:45:07;102826.19;;;0.57;100.00
45813;BME280;31519;45.408;10.962;2024-01-30T01:47:35;102825.47;;;0.49;100.00
45813;BME280;31519;45.408;10.962;2024-01-30T01:50:04;102830.28;;;0.45;100.00
45813;BME280;31519;45.408;10.962;2024-01-30T01:52:33;102827.97;;;0.42;100.00
45813;BME280;31519;45.408;10.962;2024-01-30T01:55:02;102819.53;;;0.55;100.00
45813;BME280;31519;45.408;10.962;2024-01-30T01:57:31;102825.19;;;0.43;100.00
45813;BME280;31519;45.408;10.962;2024-01-30T02:00:01;102824.22;;;0.59;100.00
45813;BME280;31519;45.408;10.962;2024-01-30T02:02:36;102823.66;;;0.34;100.00
45813;BME280;31519;45.408;10.962;2024-01-30T02:05:05;102823.84;;;0.48;100.00
45813;BME280;31519;45.408;10.962;2024-01-30T02:07:34;102815.59;;;0.80;100.00
45813;BME280;31519;45.408;10.962;2024-01-30T02:10:03;102807.22;;;1.06;100.00
45813;BME280;31519;45.408;10.962;2024-01-30T02:12:31;102801.63;;;1.45;100.00
45813;BME280;31519;45.408;10.962;2024-01-30T02:15:00;102796.94;;;1.40;100.00
45813;BME280;31519;45.408;10.962;2024-01-30T02:17:29;102798.09;;;1.38;100.00
45813;BME280;31519;45.408;10.962;2024-01-30T02:19:57;102806.63;;;1.40;100.00
45813;BME280;31519;45.408;10.962;2024-01-30T02:22:26;102788.19;;;1.54;100.00
45813;BME280;31519;45.408;10.962;2024-01-30T02:24:54;102794.88;;;1.78;100.00
45813;BME280;31519;45.408;10.962;2024-01-30T02:27:23;102796.66;;;1.56;100.00
45813;BME280;31519;45.408;10.962;2024-01-30T02:29:51;102796.19;;;1.46;100.00
45813;BME280;31519;45.408;10.962;2024-01-30T02:32:19;102796.97;;;1.47;100.00
45813;BME280;31519;45.408;10.962;2024-01-30T02:34:48;102794.59;;;1.30;100.00
45813;BME280;31519;45.408;10.962;2024-01-30T02:37:16;102793.47;;;1.18;100.00
45813;BME280;31519;45.408;10.962;2024-01-30T02:39:45;102792.16;;;0.78;100.00
45813;BME280;31519;45.408;10.962;2024-01-30T02:42:13;102792.75;;;0.59;100.00
45813;BME280;31519;45.408;10.962;2024-01-30T02:44:42;102786.13;;;0.78;100.00
45813;BME280;31519;45.408;10.962;2024-01-30T02:47:10;102787.56;;;0.66;100.00
45813;BME280;31519;45.408;10.962;2024-01-30T02:49:39;102791.19;;;0.65;100.00
45813;BME280;31519;45.408;10.962;2024-01-30T02:52:07;102791.28;;;0.42;100.00
45813;BME280;31519;45.408;10.962;2024-01-30T02:54:35;102790.84;;;0.38;100.00
45813;BME280;31519;45.408;10.962;2024-01-30T02:57:04;102787.50;;;0.59;100.00
45813;BME280;31519;45.408;10.962;2024-01-30T02:59:32;102787.69;;;0.43;100.00
45813;BME280;31519;45.408;10.962;2024-01-30T03:02:03;102781.53;;;0.36;100.00
45813;BME280;31519;45.408;10.962;2024-01-30T03:04:32;102786.88;;;0.57;100.00
45813;BME280;31519;45.408;10.962;2024-01-30T03:07:00;102783.06;;;0.60;100.00
45813;BME280;31519;45.408;10.962;2024-01-30T03:09:29;102772.66;;;0.66;100.00
45813;BME280;31519;45.408;10.962;2024-01-30T03:11:57;102777.34;;;0.71;100.00
45813;BME280;31519;45.408;10.962;2024-01-30T03:14:25;102771.28;;;0.85;100.00
45813;BME280;31519;45.408;10.962;2024-01-30T03:16:54;102771.84;;;0.66;100.00
45813;BME280;31519;45.408;10.962;2024-01-30T03:19:22;102769.47;;;0.85;100.00
45813;BME280;31519;45.408;10.962;2024-01-30T03:21:51;102765.06;;;0.57;100.00
45813;BME280;31519;45.408;10.962;2024-01-30T03:24:19;102771.94;;;0.14;100.00
45813;BME280;31519;45.408;10.962;2024-01-30T03:26:47;102771.03;;;0.21;100.00
45813;BME280;31519;45.408;10.962;2024-01-30T03:29:16;102772.38;;;0.47;100.00
45813;BME280;31519;45.408;10.962;2024-01-30T03:31:44;102764.75;;;-0.07;100.00
45813;BME280;31519;45.408;10.962;2024-01-30T03:34:13;102773.13;;;0.26;100.00
45813;BME280;31519;45.408;10.962;2024-01-30T03:36:41;102775.41;;;-0.09;100.00
45813;BME280;31519;45.408;10.962;2024-01-30T03:39:10;102779.09;;;0.34;100.00
45813;BME280;31519;45.408;10.962;2024-01-30T03:41:42;102784.38;;;-0.03;100.00
45813;BME280;31519;45.408;10.962;2024-01-30T03:44:11;102784.09;;;-0.08;100.00
45813;BME280;31519;45.408;10.962;2024-01-30T03:46:39;102784.34;;;-0.40;100.00
45813;BME280;31519;45.408;10.962;2024-01-30T03:49:09;102783.25;;;-0.23;100.00
45813;BME280;31519;45.408;10.962;2024-01-30T03:51:37;102782.84;;;-0.58;100.00
45813;BME280;31519;45.408;10.962;2024-01-30T03:54:06;102780.16;;;-0.27;100.00
45813;BME280;31519;45.408;10.962;2024-01-30T03:56:35;102779.03;;;-0.78;100.00
45813;BME280;31519;45.408;10.962;2024-01-30T03:59:03;102775.81;;;-0.57;100.00
45813;BME280;31519;45.408;10.962;2024-01-30T04:01:31;102770.56;;;-0.80;100.00
45813;BME280;31519;45.408;10.962;2024-01-30T04:04:00;102773.69;;;-0.84;100.00
45813;BME280;31519;45.408;10.962;2024-01-30T04:06:29;102774.69;;;-0.63;100.00
45813;BME280;31519;45.408;10.962;2024-01-30T04:08:57;102777.16;;;-0.61;100.00
45813;BME280;31519;45.408;10.962;2024-01-30T04:11:25;102774.97;;;-0.12;100.00
45813;BME280;31519;45.408;10.962;2024-01-30T04:13:54;102774.06;;;-0.65;100.00
45813;BME280;31519;45.408;10.962;2024-01-30T04:16:22;102772.50;;;-0.14;100.00
45813;BME280;31519;45.408;10.962;2024-01-30T04:18:51;102765.50;;;0.02;100.00
45813;BME280;31519;45.408;10.962;2024-01-30T04:21:23;102766.09;;;-0.49;100.00
45813;BME280;31519;45.408;10.962;2024-01-30T04:23:51;102764.06;;;-0.01;100.00
45813;BME280;31519;45.408;10.962;2024-01-30T04:26:20;102770.31;;;0.13;100.00
45813;BME280;31519;45.408;10.962;2024-01-30T04:28:48;102761.44;;;-0.38;100.00
45813;BME280;31519;45.408;10.962;2024-01-30T04:31:16;102773.72;;;-0.39;100.00
45813;BME280;31519;45.408;10.962;2024-01-30T04:33:45;102774.75;;;-0.71;100.00
45813;BME280;31519;45.408;10.962;2024-01-30T04:36:13;102767.03;;;-0.41;100.00
45813;BME280;31519;45.408;10.962;2024-01-30T04:38:42;102770.50;;;-0.49;100.00
45813;BME280;31519;45.408;10.962;2024-01-30T04:41:10;102769.75;;;-0.35;100.00
45813;BME280;31519;45.408;10.962;2024-01-30T04:43:38;102767.75;;;-0.10;100.00
45813;BME280;31519;45.408;10.962;2024-01-30T04:46:06;102773.31;;;-0.13;100.00
45813;BME280;31519;45.408;10.962;2024-01-30T04:48:35;102774.38;;;-0.22;100.00
45813;BME280;31519;45.408;10.962;2024-01-30T04:51:03;102762.00;;;-0.28;100.00
45813;BME280;31519;45.408;10.962;2024-01-30T04:53:32;102766.53;;;-0.22;100.00
45813;BME280;31519;45.408;10.962;2024-01-30T04:56:00;102769.28;;;-0.61;100.00
45813;BME280;31519;45.408;10.962;2024-01-30T04:58:29;102770.25;;;-0.85;100.00
45813;BME280;31519;45.408;10.962;2024-01-30T05:00:57;102770.84;;;-0.75;100.00
45813;BME280;31519;45.408;10.962;2024-01-30T05:03:26;102766.72;;;-0.92;100.00
45813;BME280;31519;45.408;10.962;2024-01-30T05:05:54;102769.53;;;-0.71;100.00
45813;BME280;31519;45.408;10.962;2024-01-30T05:08:23;102772.06;;;-0.40;100.00
45813;BME280;31519;45.408;10.962;2024-01-30T05:10:51;102772.16;;;-1.02;100.00
45813;BME280;31519;45.408;10.962;2024-01-30T05:13:20;102778.78;;;-0.91;100.00
45813;BME280;31519;45.408;10.962;2024-01-30T05:15:48;102776.25;;;-0.76;100.00
45813;BME280;31519;45.408;10.962;2024-01-30T05:18:16;102772.78;;;-0.69;100.00
45813;BME280;31519;45.408;10.962;2024-01-30T05:20:45;102764.22;;;-0.40;100.00
45813;BME280;31519;45.408;10.962;2024-01-30T05:23:13;102774.38;;;-0.91;100.00
45813;BME280;31519;45.408;10.962;2024-01-30T05:25:42;102772.13;;;-0.71;100.00
45813;BME280;31519;45.408;10.962;2024-01-30T05:28:10;102776.03;;;-0.67;100.00
45813;BME280;31519;45.408;10.962;2024-01-30T05:30:38;102768.69;;;-0.71;100.00
45813;BME280;31519;45.408;10.962;2024-01-30T05:33:07;102770.94;;;-0.37;100.00
45813;BME280;31519;45.408;10.962;2024-01-30T05:35:35;102777.09;;;-0.53;100.00
45813;BME280;31519;45.408;10.962;2024-01-30T05:38:04;102773.25;;;-0.42;100.00
45813;BME280;31519;45.408;10.962;2024-01-30T05:40:32;102777.38;;;-0.71;100.00
45813;BME280;31519;45.408;10.962;2024-01-30T05:43:00;102781.63;;;-0.47;100.00
45813;BME280;31519;45.408;10.962;2024-01-30T05:45:31;102778.66;;;-0.44;100.00
45813;BME280;31519;45.408;10.962;2024-01-30T05:47:59;102784.59;;;-1.04;100.00
45813;BME280;31519;45.408;10.962;2024-01-30T05:50:27;102778.31;;;-0.95;100.00
45813;BME280;31519;45.408;10.962;2024-01-30T05:52:56;102782.00;;;-1.12;100.00
45813;BME280;31519;45.408;10.962;2024-01-30T05:55:24;102783.66;;;-0.80;100.00
45813;BME280;31519;45.408;10.962;2024-01-30T05:57:53;102782.41;;;-0.92;100.00
45813;BME280;31519;45.408;10.962;2024-01-30T06:00:21;102777.94;;;-0.83;100.00
45813;BME280;31519;45.408;10.962;2024-01-30T06:02:49;102777.44;;;-0.87;100.00
45813;BME280;31519;45.408;10.962;2024-01-30T06:05:17;102773.53;;;-0.83;100.00
45813;BME280;31519;45.408;10.962;2024-01-30T06:07:46;102779.00;;;-0.70;100.00
45813;BME280;31519;45.408;10.962;2024-01-30T06:10:14;102781.72;;;-0.86;100.00
45813;BME280;31519;45.408;10.962;2024-01-30T06:12:43;102785.97;;;-0.85;100.00
45813;BME280;31519;45.408;10.962;2024-01-30T06:15:11;102784.94;;;-0.76;100.00
45813;BME280;31519;45.408;10.962;2024-01-30T06:17:41;102777.88;;;-0.75;100.00
45813;BME280;31519;45.408;10.962;2024-01-30T06:20:09;102787.69;;;-0.47;100.00
45813;BME280;31519;45.408;10.962;2024-01-30T06:22:38;102785.31;;;-0.87;100.00
45813;BME280;31519;45.408;10.962;2024-01-30T06:25:07;102791.25;;;-0.93;100.00
45813;BME280;31519;45.408;10.962;2024-01-30T06:27:35;102789.22;;;-0.83;100.00
45813;BME280;31519;45.408;10.962;2024-01-30T06:30:04;102794.00;;;-1.25;100.00
45813;BME280;31519;45.408;10.962;2024-01-30T06:32:33;102799.09;;;-1.32;100.00
45813;BME280;31519;45.408;10.962;2024-01-30T06:35:02;102800.00;;;-1.17;100.00
45813;BME280;31519;45.408;10.962;2024-01-30T06:37:31;102801.09;;;-0.72;100.00
45813;BME280;31519;45.408;10.962;2024-01-30T06:39:59;102811.47;;;-0.87;100.00
45813;BME280;31519;45.408;10.962;2024-01-30T06:42:28;102798.13;;;-1.00;100.00
45813;BME280;31519;45.408;10.962;2024-01-30T06:44:56;102806.69;;;-0.75;100.00
45813;BME280;31519;45.408;10.962;2024-01-30T06:47:24;102807.81;;;-1.09;100.00
45813;BME280;31519;45.408;10.962;2024-01-30T06:49:52;102802.97;;;-0.58;100.00
45813;BME280;31519;45.408;10.962;2024-01-30T06:52:21;102806.09;;;-0.40;100.00
45813;BME280;31519;45.408;10.962;2024-01-30T06:54:49;102809.59;;;-0.25;100.00
45813;BME280;31519;45.408;10.962;2024-01-30T06:57:17;102806.41;;;-0.35;100.00
45813;BME280;31519;45.408;10.962;2024-01-30T06:59:46;102801.91;;;-0.49;100.00
45813;BME280;31519;45.408;10.962;2024-01-30T07:02:15;102812.84;;;-0.68;100.00
45813;BME280;31519;45.408;10.962;2024-01-30T07:04:43;102811.28;;;-0.55;100.00
45813;BME280;31519;45.408;10.962;2024-01-30T07:07:14;102805.47;;;-0.96;100.00
45813;BME280;31519;45.408;10.962;2024-01-30T07:09:43;102816.28;;;-0.45;100.00
45813;BME280;31519;45.408;10.962;2024-01-30T07:12:12;102813.88;;;-0.09;100.00
45813;BME280;31519;45.408;10.962;2024-01-30T07:14:40;102819.38;;;-0.19;100.00
45813;BME280;31519;45.408;10.962;2024-01-30T07:17:08;102828.00;;;-0.33;100.00
45813;BME280;31519;45.408;10.962;2024-01-30T07:19:36;102828.31;;;-0.13;100.00
45813;BME280;31519;45.408;10.962;2024-01-30T07:22:05;102834.38;;;-0.35;100.00
45813;BME280;31519;45.408;10.962;2024-01-30T07:24:34;102828.97;;;-0.57;100.00
45813;BME280;31519;45.408;10.962;2024-01-30T07:27:03;102830.78;;;-0.34;100.00
45813;BME280;31519;45.408;10.962;2024-01-30T07:29:31;102834.59;;;0.00;100.00
45813;BME280;31519;45.408;10.962;2024-01-30T07:31:59;102838.31;;;0.06;100.00
45813;BME280;31519;45.408;10.962;2024-01-30T07:34:27;102832.28;;;-0.17;100.00
45813;BME280;31519;45.408;10.962;2024-01-30T07:36:56;102830.13;;;-0.14;100.00
45813;BME280;31519;45.408;10.962;2024-01-30T07:39:25;102835.84;;;-0.10;100.00
45813;BME280;31519;45.408;10.962;2024-01-30T07:41:53;102831.16;;;0.23;100.00
45813;BME280;31519;45.408;10.962;2024-01-30T07:44:22;102826.91;;;0.51;100.00
45813;BME280;31519;45.408;10.962;2024-01-30T07:46:50;102829.97;;;0.25;100.00
45813;BME280;31519;45.408;10.962;2024-01-30T07:49:18;102842.22;;;0.62;100.00
45813;BME280;31519;45.408;10.962;2024-01-30T07:51:47;102844.97;;;0.31;100.00
45813;BME280;31519;45.408;10.962;2024-01-30T07:54:15;102840.69;;;0.16;100.00
45813;BME280;31519;45.408;10.962;2024-01-30T07:56:43;102842.75;;;0.72;100.00
45813;BME280;31519;45.408;10.962;2024-01-30T07:59:11;102852.06;;;0.60;100.00
45813;BME280;31519;45.408;10.962;2024-01-30T08:01:40;102860.91;;;0.44;100.00
45813;BME280;31519;45.408;10.962;2024-01-30T08:04:08;102858.31;;;0.59;100.00
45813;BME280;31519;45.408;10.962;2024-01-30T08:06:37;102852.97;;;0.67;100.00
45813;BME280;31519;45.408;10.962;2024-01-30T08:09:09;102857.28;;;0.60;100.00
45813;BME280;31519;45.408;10.962;2024-01-30T08:11:37;102850.97;;;0.55;100.00
45813;BME280;31519;45.408;10.962;2024-01-30T08:14:06;102847.19;;;0.72;100.00
45813;BME280;31519;45.408;10.962;2024-01-30T08:16:34;102854.69;;;0.46;100.00
45813;BME280;31519;45.408;10.962;2024-01-30T08:19:02;102859.56;;;0.93;100.00
45813;BME280;31519;45.408;10.962;2024-01-30T08:21:31;102856.47;;;0.60;100.00
45813;BME280;31519;45.408;10.962;2024-01-30T08:24:07;102856.13;;;0.63;100.00
45813;BME280;31519;45.408;10.962;2024-01-30T08:26:35;102857.13;;;0.91;100.00
45813;BME280;31519;45.408;10.962;2024-01-30T08:29:04;102859.81;;;0.98;100.00
45813;BME280;31519;45.408;10.962;2024-01-30T08:31:33;102865.16;;;0.46;100.00
45813;BME280;31519;45.408;10.962;2024-01-30T08:34:02;102859.28;;;1.02;100.00
45813;BME280;31519;45.408;10.962;2024-01-30T08:36:30;102848.16;;;1.00;100.00
45813;BME280;31519;45.408;10.962;2024-01-30T08:38:58;102853.41;;;1.00;100.00
45813;BME280;31519;45.408;10.962;2024-01-30T08:41:32;102858.41;;;0.80;100.00
45813;BME280;31519;45.408;10.962;2024-01-30T08:44:00;102860.38;;;0.78;100.00
45813;BME280;31519;45.408;10.962;2024-01-30T08:46:29;102857.84;;;1.00;100.00
45813;BME280;31519;45.408;10.962;2024-01-30T08:48:57;102859.81;;;1.12;100.00
45813;BME280;31519;45.408;10.962;2024-01-30T08:51:26;102856.31;;;0.91;100.00
45813;BME280;31519;45.408;10.962;2024-01-30T08:53:54;102856.38;;;0.97;100.00
45813;BME280;31519;45.408;10.962;2024-01-30T08:56:22;102863.69;;;1.31;100.00
45813;BME280;31519;45.408;10.962;2024-01-30T08:58:51;102855.25;;;1.36;100.00
45813;BME280;31519;45.408;10.962;2024-01-30T09:01:19;102860.66;;;1.70;100.00
45813;BME280;31519;45.408;10.962;2024-01-30T09:03:48;102859.88;;;1.69;100.00
45813;BME280;31519;45.408;10.962;2024-01-30T09:06:16;102855.81;;;1.31;100.00
45813;BME280;31519;45.408;10.962;2024-01-30T09:08:44;102857.75;;;1.44;100.00
45813;BME280;31519;45.408;10.962;2024-01-30T09:11:14;102861.19;;;1.44;100.00
45813;BME280;31519;45.408;10.962;2024-01-30T09:13:43;102856.38;;;1.48;100.00
45813;BME280;31519;45.408;10.962;2024-01-30T09:16:11;102857.16;;;1.42;100.00
45813;BME280;31519;45.408;10.962;2024-01-30T09:18:40;102863.69;;;1.31;100.00
45813;BME280;31519;45.408;10.962;2024-01-30T09:21:09;102860.78;;;1.62;100.00
45813;BME280;31519;45.408;10.962;2024-01-30T09:23:38;102865.38;;;1.39;100.00
45813;BME280;31519;45.408;10.962;2024-01-30T09:26:06;102878.59;;;1.45;100.00
45813;BME280;31519;45.408;10.962;2024-01-30T09:28:34;102874.84;;;1.54;100.00
45813;BME280;31519;45.408;10.962;2024-01-30T09:31:04;102874.00;;;1.68;100.00
45813;BME280;31519;45.408;10.962;2024-01-30T09:33:32;102883.19;;;1.43;100.00
45813;BME280;31519;45.408;10.962;2024-01-30T09:36:01;102874.38;;;1.87;100.00
45813;BME280;31519;45.408;10.962;2024-01-30T09:38:29;102879.84;;;1.49;100.00
45813;BME280;31519;45.408;10.962;2024-01-30T09:40:59;102886.31;;;1.68;100.00
45813;BME280;31519;45.408;10.962;2024-01-30T09:43:32;102881.16;;;2.02;100.00
45813;BME280;31519;45.408;10.962;2024-01-30T09:46:03;102876.69;;;2.45;100.00
45813;BME280;31519;45.408;10.962;2024-01-30T09:48:34;102885.72;;;2.64;100.00
45813;BME280;31519;45.408;10.962;2024-01-30T09:51:03;102882.03;;;2.58;100.00
45813;BME280;31519;45.408;10.962;2024-01-30T09:53:31;102878.56;;;2.30;100.00
45813;BME280;31519;45.408;10.962;2024-01-30T09:56:02;102885.53;;;2.38;100.00
45813;BME280;31519;45.408;10.962;2024-01-30T09:58:30;102887.91;;;2.33;100.00
45813;BME280;31519;45.408;10.962;2024-01-30T10:00:59;102888.41;;;2.43;100.00
45813;BME280;31519;45.408;10.962;2024-01-30T10:03:28;102881.75;;;2.75;100.00
45813;BME280;31519;45.408;10.962;2024-01-30T10:05:57;102877.13;;;3.24;100.00
45813;BME280;31519;45.408;10.962;2024-01-30T10:08:26;102863.91;;;3.18;100.00
45813;BME280;31519;45.408;10.962;2024-01-30T10:10:55;102869.84;;;3.39;100.00
45813;BME280;31519;45.408;10.962;2024-01-30T10:13:23;102865.97;;;2.81;100.00
45813;BME280;31519;45.408;10.962;2024-01-30T10:15:52;102870.16;;;3.10;100.00
45813;BME280;31519;45.408;10.962;2024-01-30T10:18:22;102869.19;;;3.85;98.33
45813;BME280;31519;45.408;10.962;2024-01-30T10:20:52;102864.50;;;3.80;96.41
45813;BME280;31519;45.408;10.962;2024-01-30T10:23:20;102857.59;;;3.86;94.62
45813;BME280;31519;45.408;10.962;2024-01-30T10:25:51;102863.31;;;4.03;96.19
45813;BME280;31519;45.408;10.962;2024-01-30T10:28:19;102867.16;;;4.13;97.46
45813;BME280;31519;45.408;10.962;2024-01-30T10:30:57;102861.88;;;4.26;93.42
45813;BME280;31519;45.408;10.962;2024-01-30T10:33:32;102857.66;;;5.03;92.17
45813;BME280;31519;45.408;10.962;2024-01-30T10:36:03;102858.63;;;4.18;96.38
45813;BME280;31519;45.408;10.962;2024-01-30T10:38:32;102851.75;;;5.07;92.58
45813;BME280;31519;45.408;10.962;2024-01-30T10:41:01;102854.16;;;5.09;91.96
45813;BME280;31519;45.408;10.962;2024-01-30T10:43:36;102845.66;;;5.00;94.16
45813;BME280;31519;45.408;10.962;2024-01-30T10:46:18;102842.41;;;5.49;93.46
45813;BME280;31519;45.408;10.962;2024-01-30T10:48:56;102824.13;;;6.65;87.32
45813;BME280;31519;45.408;10.962;2024-01-30T10:51:26;102824.56;;;6.80;84.83
45813;BME280;31519;45.408;10.962;2024-01-30T10:53:56;102820.88;;;6.27;87.33
45813;BME280;31519;45.408;10.962;2024-01-30T10:56:26;102815.97;;;6.48;86.01
45813;BME280;31519;45.408;10.962;2024-01-30T10:58:55;102807.16;;;6.73;85.08
45813;BME280;31519;45.408;10.962;2024-01-30T11:01:25;102809.72;;;6.61;86.35
45813;BME280;31519;45.408;10.962;2024-01-30T11:03:55;102805.22;;;6.43;87.71
45813;BME280;31519;45.408;10.962;2024-01-30T11:06:26;102805.31;;;6.91;85.20
45813;BME280;31519;45.408;10.962;2024-01-30T11:09:05;102798.75;;;7.65;83.23
45813;BME280;31519;45.408;10.962;2024-01-30T11:11:51;102793.94;;;7.74;79.78
45813;BME280;31519;45.408;10.962;2024-01-30T11:14:24;102796.81;;;7.84;78.70
45813;BME280;31519;45.408;10.962;2024-01-30T11:16:58;102791.72;;;7.59;79.21
45813;BME280;31519;45.408;10.962;2024-01-30T11:19:30;102787.03;;;7.96;77.64
45813;BME280;31519;45.408;10.962;2024-01-30T11:21:59;102784.97;;;8.33;76.63
45813;BME280;31519;45.408;10.962;2024-01-30T11:24:28;102770.66;;;8.11;75.82
45813;BME280;31519;45.408;10.962;2024-01-30T11:27:00;102785.53;;;8.23;76.90
45813;BME280;31519;45.408;10.962;2024-01-30T11:29:35;102765.91;;;9.16;73.00
45813;BME280;31519;45.408;10.962;2024-01-30T11:32:04;102769.50;;;9.10;72.54
45813;BME280;31519;45.408;10.962;2024-01-30T11:34:33;102766.94;;;8.86;73.01
45813;BME280;31519;45.408;10.962;2024-01-30T11:37:09;102766.44;;;8.89;74.96
45813;BME280;31519;45.408;10.962;2024-01-30T11:39:41;102761.78;;;8.68;76.14
45813;BME280;31519;45.408;10.962;2024-01-30T11:42:10;102755.88;;;8.78;75.21
45813;BME280;31519;45.408;10.962;2024-01-30T11:44:39;102756.22;;;9.10;75.35
45813;BME280;31519;45.408;10.962;2024-01-30T11:47:07;102754.03;;;8.78;75.03
45813;BME280;31519;45.408;10.962;2024-01-30T11:49:36;102757.22;;;9.54;72.39
45813;BME280;31519;45.408;10.962;2024-01-30T11:52:05;102755.38;;;9.71;71.70
45813;BME280;31519;45.408;10.962;2024-01-30T11:54:33;102756.16;;;9.88;70.30
45813;BME280;31519;45.408;10.962;2024-01-30T11:57:02;102751.88;;;9.54;70.80
45813;BME280;31519;45.408;10.962;2024-01-30T11:59:30;102748.00;;;9.95;70.10
45813;BME280;31519;45.408;10.962;2024-01-30T12:01:58;102748.63;;;10.18;68.88
45813;BME280;31519;45.408;10.962;2024-01-30T12:04:28;102742.41;;;10.13;70.19
45813;BME280;31519;45.408;10.962;2024-01-30T12:06:58;102734.91;;;9.71;68.80
45813;BME280;31519;45.408;10.962;2024-01-30T12:09:31;102725.41;;;9.97;69.29
45813;BME280;31519;45.408;10.962;2024-01-30T12:12:00;102717.56;;;10.94;65.80
45813;BME280;31519;45.408;10.962;2024-01-30T12:14:28;102715.72;;;11.00;63.53
45813;BME280;31519;45.408;10.962;2024-01-30T12:16:57;102711.09;;;11.86;61.84
45813;BME280;31519;45.408;10.962;2024-01-30T12:19:26;102704.47;;;11.93;61.54
45813;BME280;31519;45.408;10.962;2024-01-30T12:21:58;102702.97;;;12.18;59.61
45813;BME280;31519;45.408;10.962;2024-01-30T12:24:29;102692.75;;;12.77;58.48
45813;BME280;31519;45.408;10.962;2024-01-30T12:27:00;102689.69;;;12.38;58.59
45813;BME280;31519;45.408;10.962;2024-01-30T12:29:32;102682.28;;;12.60;57.78
45813;BME280;31519;45.408;10.962;2024-01-30T12:32:06;102680.84;;;12.37;57.77
45813;BME280;31519;45.408;10.962;2024-01-30T12:34:39;102679.72;;;12.13;57.35
45813;BME280;31519;45.408;10.962;2024-01-30T12:37:24;102679.94;;;12.07;57.62
45813;BME280;31519;45.408;10.962;2024-01-30T12:39:53;102678.28;;;11.90;57.56
45813;BME280;31519;45.408;10.962;2024-01-30T12:42:22;102671.75;;;12.33;58.00
45813;BME280;31519;45.408;10.962;2024-01-30T12:44:50;102664.44;;;13.11;55.55
45813;BME280;31519;45.408;10.962;2024-01-30T12:47:21;102655.34;;;13.27;54.57